<?xml version="1.0" encoding="UTF-8" standalone="no" ?>
<gpx xmlns="http://www.topografix.com/GPX/1/1" xmlns:xsi="http://www.w3.org/2001/XMLSchema-instance" xsi:schemaLocation="http://www.topografix.com/GPX/1/1 http://www.topografix.com/GPX/1/1/gpx.xsd" version="1.1" creator="VisuGPX - https://www.visugpx.com">
  <metadata>
    <name>2015-09-06 Le grand Ballon</name>
    <desc><![CDATA[2015-09-06 Le grand Ballon par Christian]]></desc>
  </metadata>
  <trk>
    <name><![CDATA[OR-8037899--Linthal:2015-09-06 Le grand Ballon]]></name>
    <trkseg>
      <trkpt lat="47.93995" lon="7.10408">
        <ele>528</ele>
        <time>2017-10-25T20:17:52Z</time>
      </trkpt>
      <trkpt lat="47.94015" lon="7.10537">
        <ele>532</ele>
        <time>2017-10-25T20:19:52Z</time>
      </trkpt>
      <trkpt lat="47.9396" lon="7.10451">
        <ele>546</ele>
        <time>2017-10-25T20:21:52Z</time>
      </trkpt>
      <trkpt lat="47.93871" lon="7.10095">
        <ele>575</ele>
        <time>2017-10-25T20:23:52Z</time>
      </trkpt>
      <trkpt lat="47.93817" lon="7.09953">
        <ele>574</ele>
        <time>2017-10-25T20:25:52Z</time>
      </trkpt>
      <trkpt lat="47.93713" lon="7.09863">
        <ele>601</ele>
        <time>2017-10-25T20:27:52Z</time>
      </trkpt>
      <trkpt lat="47.93656" lon="7.0979">
        <ele>606</ele>
        <time>2017-10-25T20:29:52Z</time>
      </trkpt>
      <trkpt lat="47.93549" lon="7.09764">
        <ele>639</ele>
        <time>2017-10-25T20:31:52Z</time>
      </trkpt>
      <trkpt lat="47.93518" lon="7.09683">
        <ele>631</ele>
        <time>2017-10-25T20:33:52Z</time>
      </trkpt>
      <trkpt lat="47.9348" lon="7.09631">
        <ele>633</ele>
        <time>2017-10-25T20:35:52Z</time>
      </trkpt>
      <trkpt lat="47.9342" lon="7.09623">
        <ele>653</ele>
        <time>2017-10-25T20:37:52Z</time>
      </trkpt>
      <trkpt lat="47.93368" lon="7.09563">
        <ele>655</ele>
        <time>2017-10-25T20:39:52Z</time>
      </trkpt>
      <trkpt lat="47.93282" lon="7.09537">
        <ele>676</ele>
        <time>2017-10-25T20:41:52Z</time>
      </trkpt>
      <trkpt lat="47.93233" lon="7.09498">
        <ele>681</ele>
        <time>2017-10-25T20:43:52Z</time>
      </trkpt>
      <trkpt lat="47.93239" lon="7.09387">
        <ele>673</ele>
        <time>2017-10-25T20:45:52Z</time>
      </trkpt>
      <trkpt lat="47.93152" lon="7.09262">
        <ele>688</ele>
        <time>2017-10-25T20:47:52Z</time>
      </trkpt>
      <trkpt lat="47.93083" lon="7.09176">
        <ele>693</ele>
        <time>2017-10-25T20:49:52Z</time>
      </trkpt>
      <trkpt lat="47.92997" lon="7.09091">
        <ele>706</ele>
        <time>2017-10-25T20:51:52Z</time>
      </trkpt>
      <trkpt lat="47.92951" lon="7.09">
        <ele>705</ele>
        <time>2017-10-25T20:53:52Z</time>
      </trkpt>
      <trkpt lat="47.92902" lon="7.08932">
        <ele>704</ele>
        <time>2017-10-25T20:55:52Z</time>
      </trkpt>
      <trkpt lat="47.92781" lon="7.08885">
        <ele>706</ele>
        <time>2017-10-25T20:57:52Z</time>
      </trkpt>
      <trkpt lat="47.92701" lon="7.08902">
        <ele>716</ele>
        <time>2017-10-25T20:59:52Z</time>
      </trkpt>
      <trkpt lat="47.9262" lon="7.08927">
        <ele>730</ele>
        <time>2017-10-25T21:01:52Z</time>
      </trkpt>
      <trkpt lat="47.92566" lon="7.08953">
        <ele>751</ele>
        <time>2017-10-25T21:03:52Z</time>
      </trkpt>
      <trkpt lat="47.9254" lon="7.0888">
        <ele>746</ele>
        <time>2017-10-25T21:05:52Z</time>
      </trkpt>
      <trkpt lat="47.92488" lon="7.0879">
        <ele>752</ele>
        <time>2017-10-25T21:07:52Z</time>
      </trkpt>
      <trkpt lat="47.92399" lon="7.08743">
        <ele>763</ele>
        <time>2017-10-25T21:09:52Z</time>
      </trkpt>
      <trkpt lat="47.92238" lon="7.08872">
        <ele>819</ele>
        <time>2017-10-25T21:11:52Z</time>
      </trkpt>
      <trkpt lat="47.92111" lon="7.09091">
        <ele>889</ele>
        <time>2017-10-25T21:13:52Z</time>
      </trkpt>
      <trkpt lat="47.92074" lon="7.09215">
        <ele>905</ele>
        <time>2017-10-25T21:15:52Z</time>
      </trkpt>
      <trkpt lat="47.92175" lon="7.09168">
        <ele>908</ele>
        <time>2017-10-25T21:17:52Z</time>
      </trkpt>
      <trkpt lat="47.92123" lon="7.09232">
        <ele>918</ele>
        <time>2017-10-25T21:19:52Z</time>
      </trkpt>
      <trkpt lat="47.92034" lon="7.09382">
        <ele>927</ele>
        <time>2017-10-25T21:21:52Z</time>
      </trkpt>
      <trkpt lat="47.92002" lon="7.0943">
        <ele>929</ele>
        <time>2017-10-25T21:23:52Z</time>
      </trkpt>
      <trkpt lat="47.91896" lon="7.0952">
        <ele>944</ele>
        <time>2017-10-25T21:25:52Z</time>
      </trkpt>
      <trkpt lat="47.91781" lon="7.09545">
        <ele>961</ele>
        <time>2017-10-25T21:27:52Z</time>
      </trkpt>
      <trkpt lat="47.91637" lon="7.09498">
        <ele>971</ele>
        <time>2017-10-25T21:29:52Z</time>
      </trkpt>
      <trkpt lat="47.91464" lon="7.09584">
        <ele>1002</ele>
        <time>2017-10-25T21:31:52Z</time>
      </trkpt>
      <trkpt lat="47.91447" lon="7.09447">
        <ele>1000</ele>
        <time>2017-10-25T21:33:52Z</time>
      </trkpt>
      <trkpt lat="47.91436" lon="7.09378">
        <ele>1013</ele>
        <time>2017-10-25T21:35:52Z</time>
      </trkpt>
      <trkpt lat="47.91361" lon="7.09361">
        <ele>1012</ele>
        <time>2017-10-25T21:37:52Z</time>
      </trkpt>
      <trkpt lat="47.91295" lon="7.09344">
        <ele>1015</ele>
        <time>2017-10-25T21:39:52Z</time>
      </trkpt>
      <trkpt lat="47.91211" lon="7.09348">
        <ele>1015</ele>
        <time>2017-10-25T21:41:52Z</time>
      </trkpt>
      <trkpt lat="47.91139" lon="7.09339">
        <ele>1021</ele>
        <time>2017-10-25T21:43:52Z</time>
      </trkpt>
      <trkpt lat="47.9105" lon="7.09322">
        <ele>1040</ele>
        <time>2017-10-25T21:45:52Z</time>
      </trkpt>
      <trkpt lat="47.91154" lon="7.09228">
        <ele>1060</ele>
        <time>2017-10-25T21:47:52Z</time>
      </trkpt>
      <trkpt lat="47.91027" lon="7.09189">
        <ele>1073</ele>
        <time>2017-10-25T21:49:52Z</time>
      </trkpt>
      <trkpt lat="47.91044" lon="7.09125">
        <ele>1091</ele>
        <time>2017-10-25T21:51:52Z</time>
      </trkpt>
      <trkpt lat="47.90987" lon="7.09129">
        <ele>1091</ele>
        <time>2017-10-25T21:53:52Z</time>
      </trkpt>
      <trkpt lat="47.90843" lon="7.09039">
        <ele>1118</ele>
        <time>2017-10-25T21:55:52Z</time>
      </trkpt>
      <trkpt lat="47.90852" lon="7.09009">
        <ele>1123</ele>
        <time>2017-10-25T21:57:52Z</time>
      </trkpt>
      <trkpt lat="47.90819" lon="7.0896">
        <ele>1136</ele>
        <time>2017-10-25T21:59:52Z</time>
      </trkpt>
      <trkpt lat="47.90857" lon="7.08927">
        <ele>1143</ele>
        <time>2017-10-25T22:01:52Z</time>
      </trkpt>
      <trkpt lat="47.908" lon="7.089">
        <ele>1152</ele>
        <time>2017-10-25T22:03:52Z</time>
      </trkpt>
      <trkpt lat="47.90817" lon="7.08848">
        <ele>1165</ele>
        <time>2017-10-25T22:05:52Z</time>
      </trkpt>
      <trkpt lat="47.90936" lon="7.08889">
        <ele>1159</ele>
        <time>2017-10-25T22:07:52Z</time>
      </trkpt>
      <trkpt lat="47.90951" lon="7.08872">
        <ele>1163</ele>
        <time>2017-10-25T22:09:52Z</time>
      </trkpt>
      <trkpt lat="47.90938" lon="7.08801">
        <ele>1178</ele>
        <time>2017-10-25T22:11:52Z</time>
      </trkpt>
      <trkpt lat="47.90885" lon="7.08792">
        <ele>1183</ele>
        <time>2017-10-25T22:13:52Z</time>
      </trkpt>
      <trkpt lat="47.90829" lon="7.08769">
        <ele>1192</ele>
        <time>2017-10-25T22:15:52Z</time>
      </trkpt>
      <trkpt lat="47.90772" lon="7.08773">
        <ele>1192</ele>
        <time>2017-10-25T22:17:52Z</time>
      </trkpt>
      <trkpt lat="47.90711" lon="7.08794">
        <ele>1197</ele>
        <time>2017-10-25T22:19:52Z</time>
      </trkpt>
      <trkpt lat="47.9066" lon="7.08867">
        <ele>1200</ele>
        <time>2017-10-25T22:21:52Z</time>
      </trkpt>
      <trkpt lat="47.90619" lon="7.08938">
        <ele>1209</ele>
        <time>2017-10-25T22:23:52Z</time>
      </trkpt>
      <trkpt lat="47.90564" lon="7.09026">
        <ele>1219</ele>
        <time>2017-10-25T22:25:52Z</time>
      </trkpt>
      <trkpt lat="47.90511" lon="7.09041">
        <ele>1226</ele>
        <time>2017-10-25T22:27:52Z</time>
      </trkpt>
      <trkpt lat="47.90482" lon="7.09037">
        <ele>1227</ele>
        <time>2017-10-25T22:29:52Z</time>
      </trkpt>
      <trkpt lat="47.90446" lon="7.09108">
        <ele>1232</ele>
        <time>2017-10-25T22:31:52Z</time>
      </trkpt>
      <trkpt lat="47.90452" lon="7.09176">
        <ele>1239</ele>
        <time>2017-10-25T22:33:52Z</time>
      </trkpt>
      <trkpt lat="47.9043" lon="7.09247">
        <ele>1247</ele>
        <time>2017-10-25T22:35:52Z</time>
      </trkpt>
      <trkpt lat="47.90406" lon="7.09301">
        <ele>1261</ele>
        <time>2017-10-25T22:37:52Z</time>
      </trkpt>
      <trkpt lat="47.90337" lon="7.09277">
        <ele>1269</ele>
        <time>2017-10-25T22:39:52Z</time>
      </trkpt>
      <trkpt lat="47.90243" lon="7.09297">
        <ele>1280</ele>
        <time>2017-10-25T22:41:52Z</time>
      </trkpt>
      <trkpt lat="47.90191" lon="7.09357">
        <ele>1281</ele>
        <time>2017-10-25T22:43:52Z</time>
      </trkpt>
      <trkpt lat="47.90242" lon="7.09292">
        <ele>1279</ele>
        <time>2017-10-25T22:45:52Z</time>
      </trkpt>
      <trkpt lat="47.90193" lon="7.09352">
        <ele>1280</ele>
        <time>2017-10-25T22:47:52Z</time>
      </trkpt>
      <trkpt lat="47.90196" lon="7.09421">
        <ele>1295</ele>
        <time>2017-10-25T22:49:52Z</time>
      </trkpt>
      <trkpt lat="47.9017" lon="7.09481">
        <ele>1307</ele>
        <time>2017-10-25T22:51:52Z</time>
      </trkpt>
      <trkpt lat="47.90104" lon="7.09537">
        <ele>1316</ele>
        <time>2017-10-25T22:53:52Z</time>
      </trkpt>
      <trkpt lat="47.9003" lon="7.09599">
        <ele>1325</ele>
        <time>2017-10-25T22:55:52Z</time>
      </trkpt>
      <trkpt lat="47.89989" lon="7.09668">
        <ele>1339</ele>
        <time>2017-10-25T22:57:52Z</time>
      </trkpt>
      <trkpt lat="47.89951" lon="7.09758">
        <ele>1352</ele>
        <time>2017-10-25T22:59:52Z</time>
      </trkpt>
      <trkpt lat="47.89917" lon="7.0985">
        <ele>1363</ele>
        <time>2017-10-25T23:01:52Z</time>
      </trkpt>
      <trkpt lat="47.89895" lon="7.09902">
        <ele>1360</ele>
        <time>2017-10-25T23:03:52Z</time>
      </trkpt>
      <trkpt lat="47.89918" lon="7.09949">
        <ele>1372</ele>
        <time>2017-10-25T23:05:52Z</time>
      </trkpt>
      <trkpt lat="47.89981" lon="7.09919">
        <ele>1392</ele>
        <time>2017-10-25T23:07:52Z</time>
      </trkpt>
      <trkpt lat="47.90042" lon="7.0985">
        <ele>1402</ele>
        <time>2017-10-25T23:09:52Z</time>
      </trkpt>
      <trkpt lat="47.90092" lon="7.09786">
        <ele>1401</ele>
        <time>2017-10-25T23:11:52Z</time>
      </trkpt>
      <trkpt lat="47.90138" lon="7.09863">
        <ele>1409</ele>
        <time>2017-10-25T23:13:52Z</time>
      </trkpt>
      <trkpt lat="47.90075" lon="7.09889">
        <ele>1411</ele>
        <time>2017-10-25T23:15:52Z</time>
      </trkpt>
      <trkpt lat="47.90055" lon="7.09927">
        <ele>1406</ele>
        <time>2017-10-25T23:17:52Z</time>
      </trkpt>
      <trkpt lat="47.9023" lon="7.10082">
        <ele>1384</ele>
        <time>2017-10-25T23:19:52Z</time>
      </trkpt>
      <trkpt lat="47.90247" lon="7.09927">
        <ele>1405</ele>
        <time>2017-10-25T23:21:52Z</time>
      </trkpt>
      <trkpt lat="47.90276" lon="7.0991">
        <ele>1400</ele>
        <time>2017-10-25T23:23:52Z</time>
      </trkpt>
      <trkpt lat="47.90357" lon="7.1">
        <ele>1389</ele>
        <time>2017-10-25T23:25:52Z</time>
      </trkpt>
      <trkpt lat="47.90423" lon="7.10103">
        <ele>1359</ele>
        <time>2017-10-25T23:27:52Z</time>
      </trkpt>
      <trkpt lat="47.90414" lon="7.10232">
        <ele>1350</ele>
        <time>2017-10-25T23:29:52Z</time>
      </trkpt>
      <trkpt lat="47.90472" lon="7.10309">
        <ele>1335</ele>
        <time>2017-10-25T23:31:52Z</time>
      </trkpt>
      <trkpt lat="47.90647" lon="7.10477">
        <ele>1325</ele>
        <time>2017-10-25T23:33:52Z</time>
      </trkpt>
      <trkpt lat="47.90685" lon="7.10412">
        <ele>1316</ele>
        <time>2017-10-25T23:35:52Z</time>
      </trkpt>
      <trkpt lat="47.90829" lon="7.10472">
        <ele>1306</ele>
        <time>2017-10-25T23:37:52Z</time>
      </trkpt>
      <trkpt lat="47.91073" lon="7.10498">
        <ele>1269</ele>
        <time>2017-10-25T23:39:52Z</time>
      </trkpt>
      <trkpt lat="47.91168" lon="7.10558">
        <ele>1250</ele>
        <time>2017-10-25T23:41:52Z</time>
      </trkpt>
      <trkpt lat="47.91134" lon="7.10708">
        <ele>1242</ele>
        <time>2017-10-25T23:43:52Z</time>
      </trkpt>
      <trkpt lat="47.91099" lon="7.10859">
        <ele>1232</ele>
        <time>2017-10-25T23:45:52Z</time>
      </trkpt>
      <trkpt lat="47.91079" lon="7.11086">
        <ele>1223</ele>
        <time>2017-10-25T23:47:52Z</time>
      </trkpt>
      <trkpt lat="47.91093" lon="7.11206">
        <ele>1218</ele>
        <time>2017-10-25T23:49:52Z</time>
      </trkpt>
      <trkpt lat="47.91205" lon="7.11356">
        <ele>1201</ele>
        <time>2017-10-25T23:51:52Z</time>
      </trkpt>
      <trkpt lat="47.91326" lon="7.11429">
        <ele>1176</ele>
        <time>2017-10-25T23:53:52Z</time>
      </trkpt>
      <trkpt lat="47.91369" lon="7.11541">
        <ele>1167</ele>
        <time>2017-10-25T23:55:52Z</time>
      </trkpt>
      <trkpt lat="47.91372" lon="7.11704">
        <ele>1158</ele>
        <time>2017-10-25T23:57:52Z</time>
      </trkpt>
      <trkpt lat="47.91427" lon="7.1185">
        <ele>1138</ele>
        <time>2017-10-25T23:59:52Z</time>
      </trkpt>
      <trkpt lat="47.91499" lon="7.12017">
        <ele>1116</ele>
        <time>2017-10-26T00:01:52Z</time>
      </trkpt>
      <trkpt lat="47.9143" lon="7.12202">
        <ele>1103</ele>
        <time>2017-10-26T00:03:52Z</time>
      </trkpt>
      <trkpt lat="47.91343" lon="7.12391">
        <ele>1084</ele>
        <time>2017-10-26T00:05:52Z</time>
      </trkpt>
      <trkpt lat="47.91251" lon="7.12575">
        <ele>1060</ele>
        <time>2017-10-26T00:07:52Z</time>
      </trkpt>
      <trkpt lat="47.91208" lon="7.12648">
        <ele>1044</ele>
        <time>2017-10-26T00:09:52Z</time>
      </trkpt>
      <trkpt lat="47.9111" lon="7.12665">
        <ele>1038</ele>
        <time>2017-10-26T00:11:52Z</time>
      </trkpt>
      <trkpt lat="47.91056" lon="7.127">
        <ele>1023</ele>
        <time>2017-10-26T00:13:52Z</time>
      </trkpt>
      <trkpt lat="47.90998" lon="7.12717">
        <ele>1016</ele>
        <time>2017-10-26T00:15:52Z</time>
      </trkpt>
      <trkpt lat="47.90958" lon="7.12743">
        <ele>1008</ele>
        <time>2017-10-26T00:17:52Z</time>
      </trkpt>
      <trkpt lat="47.90788" lon="7.12884">
        <ele>969</ele>
        <time>2017-10-26T00:19:52Z</time>
      </trkpt>
      <trkpt lat="47.9082" lon="7.12923">
        <ele>971</ele>
        <time>2017-10-26T00:21:52Z</time>
      </trkpt>
      <trkpt lat="47.90938" lon="7.12901">
        <ele>968</ele>
        <time>2017-10-26T00:23:52Z</time>
      </trkpt>
      <trkpt lat="47.91053" lon="7.12859">
        <ele>973</ele>
        <time>2017-10-26T00:25:52Z</time>
      </trkpt>
      <trkpt lat="47.91185" lon="7.1288">
        <ele>971</ele>
        <time>2017-10-26T00:27:52Z</time>
      </trkpt>
      <trkpt lat="47.91312" lon="7.12876">
        <ele>966</ele>
        <time>2017-10-26T00:29:52Z</time>
      </trkpt>
      <trkpt lat="47.91447" lon="7.12734">
        <ele>956</ele>
        <time>2017-10-26T00:31:52Z</time>
      </trkpt>
      <trkpt lat="47.91594" lon="7.12653">
        <ele>935</ele>
        <time>2017-10-26T00:33:52Z</time>
      </trkpt>
      <trkpt lat="47.91697" lon="7.1258">
        <ele>933</ele>
        <time>2017-10-26T00:35:52Z</time>
      </trkpt>
      <trkpt lat="47.9185" lon="7.12447">
        <ele>950</ele>
        <time>2017-10-26T00:37:52Z</time>
      </trkpt>
      <trkpt lat="47.91953" lon="7.12378">
        <ele>950</ele>
        <time>2017-10-26T00:39:52Z</time>
      </trkpt>
      <trkpt lat="47.92031" lon="7.12318">
        <ele>938</ele>
        <time>2017-10-26T00:41:52Z</time>
      </trkpt>
      <trkpt lat="47.9204" lon="7.11996">
        <ele>917</ele>
        <time>2017-10-26T00:43:52Z</time>
      </trkpt>
      <trkpt lat="47.91996" lon="7.11923">
        <ele>914</ele>
        <time>2017-10-26T00:45:52Z</time>
      </trkpt>
      <trkpt lat="47.9189" lon="7.11824">
        <ele>929</ele>
        <time>2017-10-26T00:47:52Z</time>
      </trkpt>
      <trkpt lat="47.91809" lon="7.1167">
        <ele>946</ele>
        <time>2017-10-26T00:49:52Z</time>
      </trkpt>
      <trkpt lat="47.91867" lon="7.11502">
        <ele>950</ele>
        <time>2017-10-26T00:51:52Z</time>
      </trkpt>
      <trkpt lat="47.91901" lon="7.11442">
        <ele>946</ele>
        <time>2017-10-26T00:53:52Z</time>
      </trkpt>
      <trkpt lat="47.9195" lon="7.11361">
        <ele>963</ele>
        <time>2017-10-26T00:55:52Z</time>
      </trkpt>
      <trkpt lat="47.91961" lon="7.11381">
        <ele>954</ele>
        <time>2017-10-26T00:57:52Z</time>
      </trkpt>
      <trkpt lat="47.91958" lon="7.114">
        <ele>947</ele>
        <time>2017-10-26T00:59:52Z</time>
      </trkpt>
      <trkpt lat="47.91988" lon="7.11418">
        <ele>935</ele>
        <time>2017-10-26T01:01:52Z</time>
      </trkpt>
      <trkpt lat="47.91978" lon="7.11441">
        <ele>929</ele>
        <time>2017-10-26T01:03:52Z</time>
      </trkpt>
      <trkpt lat="47.91996" lon="7.11446">
        <ele>924</ele>
        <time>2017-10-26T01:05:52Z</time>
      </trkpt>
      <trkpt lat="47.92012" lon="7.11466">
        <ele>915</ele>
        <time>2017-10-26T01:07:52Z</time>
      </trkpt>
      <trkpt lat="47.91986" lon="7.11476">
        <ele>915</ele>
        <time>2017-10-26T01:09:52Z</time>
      </trkpt>
      <trkpt lat="47.91997" lon="7.11497">
        <ele>905</ele>
        <time>2017-10-26T01:11:52Z</time>
      </trkpt>
      <trkpt lat="47.91975" lon="7.11522">
        <ele>902</ele>
        <time>2017-10-26T01:13:52Z</time>
      </trkpt>
      <trkpt lat="47.91978" lon="7.11543">
        <ele>895</ele>
        <time>2017-10-26T01:15:52Z</time>
      </trkpt>
      <trkpt lat="47.92306" lon="7.11575">
        <ele>867</ele>
        <time>2017-10-26T01:17:52Z</time>
      </trkpt>
      <trkpt lat="47.92434" lon="7.11552">
        <ele>863</ele>
        <time>2017-10-26T01:19:52Z</time>
      </trkpt>
      <trkpt lat="47.92469" lon="7.11554">
        <ele>852</ele>
        <time>2017-10-26T01:21:52Z</time>
      </trkpt>
      <trkpt lat="47.92482" lon="7.11522">
        <ele>851</ele>
        <time>2017-10-26T01:23:52Z</time>
      </trkpt>
      <trkpt lat="47.92489" lon="7.11492">
        <ele>851</ele>
        <time>2017-10-26T01:25:52Z</time>
      </trkpt>
      <trkpt lat="47.92503" lon="7.11514">
        <ele>845</ele>
        <time>2017-10-26T01:27:52Z</time>
      </trkpt>
      <trkpt lat="47.92511" lon="7.11484">
        <ele>842</ele>
        <time>2017-10-26T01:29:52Z</time>
      </trkpt>
      <trkpt lat="47.92523" lon="7.11499">
        <ele>839</ele>
        <time>2017-10-26T01:31:52Z</time>
      </trkpt>
      <trkpt lat="47.92537" lon="7.11432">
        <ele>828</ele>
        <time>2017-10-26T01:33:52Z</time>
      </trkpt>
      <trkpt lat="47.92541" lon="7.11341">
        <ele>816</ele>
        <time>2017-10-26T01:35:52Z</time>
      </trkpt>
      <trkpt lat="47.92542" lon="7.11241">
        <ele>807</ele>
        <time>2017-10-26T01:37:52Z</time>
      </trkpt>
      <trkpt lat="47.92517" lon="7.11036">
        <ele>816</ele>
        <time>2017-10-26T01:39:52Z</time>
      </trkpt>
      <trkpt lat="47.92513" lon="7.10932">
        <ele>826</ele>
        <time>2017-10-26T01:41:52Z</time>
      </trkpt>
      <trkpt lat="47.92508" lon="7.10885">
        <ele>830</ele>
        <time>2017-10-26T01:43:52Z</time>
      </trkpt>
      <trkpt lat="47.92546" lon="7.10848">
        <ele>832</ele>
        <time>2017-10-26T01:45:52Z</time>
      </trkpt>
      <trkpt lat="47.92592" lon="7.10786">
        <ele>851</ele>
        <time>2017-10-26T01:47:52Z</time>
      </trkpt>
      <trkpt lat="47.92635" lon="7.10715">
        <ele>872</ele>
        <time>2017-10-26T01:49:52Z</time>
      </trkpt>
      <trkpt lat="47.9272" lon="7.10614">
        <ele>892</ele>
        <time>2017-10-26T01:51:52Z</time>
      </trkpt>
      <trkpt lat="47.92757" lon="7.10532">
        <ele>909</ele>
        <time>2017-10-26T01:53:52Z</time>
      </trkpt>
      <trkpt lat="47.92875" lon="7.10627">
        <ele>890</ele>
        <time>2017-10-26T01:55:52Z</time>
      </trkpt>
      <trkpt lat="47.92888" lon="7.10678">
        <ele>881</ele>
        <time>2017-10-26T01:57:52Z</time>
      </trkpt>
      <trkpt lat="47.93006" lon="7.10786">
        <ele>864</ele>
        <time>2017-10-26T01:59:52Z</time>
      </trkpt>
      <trkpt lat="47.93069" lon="7.10876">
        <ele>851</ele>
        <time>2017-10-26T02:01:52Z</time>
      </trkpt>
      <trkpt lat="47.93132" lon="7.11013">
        <ele>836</ele>
        <time>2017-10-26T02:03:52Z</time>
      </trkpt>
      <trkpt lat="47.93181" lon="7.11133">
        <ele>822</ele>
        <time>2017-10-26T02:05:52Z</time>
      </trkpt>
      <trkpt lat="47.93221" lon="7.11119">
        <ele>826</ele>
        <time>2017-10-26T02:07:52Z</time>
      </trkpt>
      <trkpt lat="47.93257" lon="7.11141">
        <ele>825</ele>
        <time>2017-10-26T02:09:52Z</time>
      </trkpt>
      <trkpt lat="47.93299" lon="7.11138">
        <ele>822</ele>
        <time>2017-10-26T02:11:52Z</time>
      </trkpt>
      <trkpt lat="47.93324" lon="7.11126">
        <ele>822</ele>
        <time>2017-10-26T02:13:52Z</time>
      </trkpt>
      <trkpt lat="47.93368" lon="7.11162">
        <ele>813</ele>
        <time>2017-10-26T02:15:52Z</time>
      </trkpt>
      <trkpt lat="47.93393" lon="7.11162">
        <ele>808</ele>
        <time>2017-10-26T02:17:52Z</time>
      </trkpt>
      <trkpt lat="47.93461" lon="7.11104">
        <ele>801</ele>
        <time>2017-10-26T02:19:52Z</time>
      </trkpt>
      <trkpt lat="47.93465" lon="7.1116">
        <ele>795</ele>
        <time>2017-10-26T02:21:52Z</time>
      </trkpt>
      <trkpt lat="47.93499" lon="7.11135">
        <ele>790</ele>
        <time>2017-10-26T02:23:52Z</time>
      </trkpt>
      <trkpt lat="47.93532" lon="7.11075">
        <ele>783</ele>
        <time>2017-10-26T02:25:52Z</time>
      </trkpt>
      <trkpt lat="47.93554" lon="7.11001">
        <ele>775</ele>
        <time>2017-10-26T02:27:52Z</time>
      </trkpt>
      <trkpt lat="47.93567" lon="7.11112">
        <ele>769</ele>
        <time>2017-10-26T02:29:52Z</time>
      </trkpt>
      <trkpt lat="47.93588" lon="7.10979">
        <ele>765</ele>
        <time>2017-10-26T02:31:52Z</time>
      </trkpt>
      <trkpt lat="47.9357" lon="7.10949">
        <ele>765</ele>
        <time>2017-10-26T02:33:52Z</time>
      </trkpt>
      <trkpt lat="47.93476" lon="7.1092">
        <ele>771</ele>
        <time>2017-10-26T02:35:52Z</time>
      </trkpt>
      <trkpt lat="47.93451" lon="7.10849">
        <ele>755</ele>
        <time>2017-10-26T02:37:52Z</time>
      </trkpt>
      <trkpt lat="47.93503" lon="7.10864">
        <ele>751</ele>
        <time>2017-10-26T02:39:52Z</time>
      </trkpt>
      <trkpt lat="47.93653" lon="7.10845">
        <ele>724</ele>
        <time>2017-10-26T02:41:52Z</time>
      </trkpt>
      <trkpt lat="47.93766" lon="7.10931">
        <ele>694</ele>
        <time>2017-10-26T02:43:52Z</time>
      </trkpt>
      <trkpt lat="47.93777" lon="7.11034">
        <ele>686</ele>
        <time>2017-10-26T02:45:52Z</time>
      </trkpt>
      <trkpt lat="47.93802" lon="7.11044">
        <ele>676</ele>
        <time>2017-10-26T02:47:52Z</time>
      </trkpt>
      <trkpt lat="47.93833" lon="7.10935">
        <ele>671</ele>
        <time>2017-10-26T02:49:52Z</time>
      </trkpt>
      <trkpt lat="47.93847" lon="7.10883">
        <ele>665</ele>
        <time>2017-10-26T02:51:52Z</time>
      </trkpt>
      <trkpt lat="47.93752" lon="7.10715">
        <ele>654</ele>
        <time>2017-10-26T02:53:52Z</time>
      </trkpt>
      <trkpt lat="47.93674" lon="7.10608">
        <ele>648</ele>
        <time>2017-10-26T02:55:52Z</time>
      </trkpt>
      <trkpt lat="47.93704" lon="7.10528">
        <ele>634</ele>
        <time>2017-10-26T02:57:52Z</time>
      </trkpt>
      <trkpt lat="47.93814" lon="7.10481">
        <ele>610</ele>
        <time>2017-10-26T02:59:52Z</time>
      </trkpt>
      <trkpt lat="47.9385" lon="7.10073">
        <ele>584</ele>
        <time>2017-10-26T03:01:52Z</time>
      </trkpt>
      <trkpt lat="47.93893" lon="7.10204">
        <ele>572</ele>
        <time>2017-10-26T03:03:52Z</time>
      </trkpt>
      <trkpt lat="47.93923" lon="7.10339">
        <ele>561</ele>
        <time>2017-10-26T03:05:52Z</time>
      </trkpt>
      <trkpt lat="47.93962" lon="7.10511">
        <ele>547</ele>
        <time>2017-10-26T03:07:52Z</time>
      </trkpt>
    </trkseg>
  </trk>
</gpx>